createdAt,value
2022-09-07T00:00:33.060Z,5.32
2022-09-07T00:01:36.000Z,4.85
2022-09-07T00:02:38.938Z,5.75
2022-09-07T00:03:41.917Z,4.70
2022-09-07T00:04:44.781Z,5.60
2022-09-07T00:05:49.964Z,5.00
2022-09-07T00:06:52.835Z,4.80
2022-09-07T00:07:56.537Z,5.00
2022-09-07T00:08:59.502Z,4.40
2022-09-07T00:10:02.567Z,5.28
2022-09-07T00:11:11.289Z,5.30
2022-09-07T00:12:14.302Z,5.18
2022-09-07T00:13:17.146Z,4.97
2022-09-07T00:14:20.044Z,5.37
2022-09-07T00:15:23.347Z,5.50
2022-09-07T00:16:30.379Z,5.68
2022-09-07T00:17:33.339Z,5.40
2022-09-07T00:18:36.716Z,5.40
2022-09-07T00:19:43.102Z,6.00
2022-09-07T00:20:46.476Z,4.75
2022-09-07T00:21:49.406Z,4.87
2022-09-07T00:22:52.175Z,4.70
2022-09-07T00:23:57.115Z,4.85
2022-09-07T00:25:00.087Z,5.25
2022-09-07T00:26:09.606Z,4.97
2022-09-07T00:27:12.608Z,4.90
2022-09-07T00:28:16.253Z,4.93
2022-09-07T00:29:19.157Z,5.30
2022-09-07T00:30:22.121Z,5.50
2022-09-07T00:31:25.950Z,5.22
2022-09-07T00:32:28.962Z,5.30
2022-09-07T00:33:31.889Z,5.05
2022-09-07T00:34:35.025Z,6.00
2022-09-07T00:35:42.012Z,5.28
2022-09-07T00:36:45.046Z,5.93
2022-09-07T00:37:48.024Z,5.32
2022-09-07T00:38:51.456Z,5.60
2022-09-07T00:39:54.511Z,5.85
2022-09-07T00:40:57.404Z,5.43
2022-09-07T00:42:00.924Z,5.78
2022-09-07T00:43:04.698Z,5.60
2022-09-07T00:44:38.765Z,5.70
2022-09-07T00:45:41.658Z,6.05
2022-09-07T00:46:45.610Z,5.82
2022-09-07T00:48:03.238Z,5.68
2022-09-07T00:49:08.323Z,5.55
2022-09-07T00:50:23.760Z,5.47
2022-09-07T00:51:56.282Z,5.40
2022-09-07T00:53:37.734Z,5.72
2022-09-07T00:54:46.978Z,5.75
2022-09-07T00:55:52.670Z,5.95
2022-09-07T00:56:56.245Z,5.87
2022-09-07T00:58:00.439Z,5.75
2022-09-07T00:59:03.378Z,5.95
2022-09-07T01:00:06.887Z,6.43
2022-09-07T01:01:10.556Z,6.37
2022-09-07T01:02:17.730Z,5.97
2022-09-07T01:03:26.266Z,6.18
2022-09-07T01:04:30.596Z,6.25
2022-09-07T01:05:43.992Z,5.87
2022-09-07T01:06:47.066Z,6.10
2022-09-07T01:07:50.751Z,5.93
2022-09-07T01:08:55.842Z,6.43
2022-09-07T01:10:00.821Z,6.70
2022-09-07T01:11:05.427Z,6.03
2022-09-07T01:12:09.042Z,6.37
2022-09-07T01:13:11.995Z,6.37
2022-09-07T01:14:16.049Z,5.90
2022-09-07T01:15:21.003Z,5.80
2022-09-07T01:16:54.161Z,6.28
2022-09-07T01:18:09.264Z,6.50
2022-09-07T01:19:27.354Z,6.57
2022-09-07T01:20:49.857Z,6.20
2022-09-07T01:21:55.817Z,6.78
2022-09-07T01:23:27.862Z,6.60
2022-09-07T01:24:58.516Z,6.60
2022-09-07T01:26:19.542Z,6.25
2022-09-07T01:27:43.239Z,6.15
2022-09-07T01:28:53.261Z,6.53
2022-09-07T01:30:06.068Z,6.10
2022-09-07T01:31:29.869Z,6.60
2022-09-07T01:33:16.249Z,6.65
2022-09-07T01:34:38.600Z,6.65
2022-09-07T01:35:55.554Z,6.75
2022-09-07T01:37:16.764Z,6.85
2022-09-07T01:38:26.738Z,6.87
2022-09-07T01:39:59.396Z,7.62
2022-09-07T01:41:09.928Z,6.70
2022-09-07T01:42:15.513Z,6.70
2022-09-07T01:43:34.016Z,7.30
2022-09-07T01:44:42.569Z,7.72
2022-09-07T01:45:48.232Z,7.90
2022-09-07T01:47:07.876Z,7.97
2022-09-07T01:48:16.137Z,8.23
2022-09-07T01:49:26.324Z,8.02
2022-09-07T01:50:37.988Z,7.68
2022-09-07T01:51:45.682Z,7.82
2022-09-07T01:52:59.112Z,8.05
2022-09-07T01:54:11.985Z,7.93
2022-09-07T01:55:37.778Z,7.85
2022-09-07T01:56:46.052Z,8.18
2022-09-07T01:58:12.188Z,8.40
2022-09-07T01:59:29.709Z,8.68
2022-09-07T02:00:35.596Z,8.35
2022-09-07T02:01:52.654Z,7.87
2022-09-07T02:03:07.907Z,8.80
2022-09-07T02:04:17.702Z,8.65
2022-09-07T02:05:25.653Z,8.60
2022-09-07T02:07:15.166Z,8.38
2022-09-07T02:08:44.167Z,8.88
2022-09-07T02:09:54.726Z,8.50
2022-09-07T02:11:35.282Z,9.57
2022-09-07T02:13:14.054Z,9.68
2022-09-07T02:14:37.415Z,8.88
2022-09-07T02:15:53.105Z,8.90
2022-09-07T02:17:03.809Z,9.13
2022-09-07T02:18:08.430Z,9.73
2022-09-07T02:19:16.605Z,10.05
2022-09-07T02:20:27.217Z,8.75
2022-09-07T02:21:48.712Z,9.25
2022-09-07T02:22:55.869Z,8.15
2022-09-07T02:24:04.555Z,8.93
2022-09-07T02:25:09.431Z,9.07
2022-09-07T02:26:21.345Z,8.38
2022-09-07T02:27:44.261Z,7.93
2022-09-07T02:28:47.892Z,7.95
2022-09-07T02:29:52.410Z,8.60
2022-09-07T02:30:55.526Z,8.27
2022-09-07T02:31:58.497Z,8.05
2022-09-07T02:33:01.532Z,8.23
2022-09-07T02:34:04.518Z,8.00
2022-09-07T02:35:08.040Z,8.20
2022-09-07T02:36:14.238Z,8.15
2022-09-07T02:37:20.136Z,8.20
2022-09-07T02:38:25.089Z,8.10
2022-09-07T02:39:28.253Z,8.68
2022-09-07T02:40:31.456Z,7.90
2022-09-07T02:41:38.492Z,8.25
2022-09-07T02:42:43.505Z,8.13
2022-09-07T02:43:46.423Z,7.97
2022-09-07T02:44:50.517Z,8.50
2022-09-07T02:46:14.347Z,8.75
2022-09-07T02:47:35.912Z,8.18
2022-09-07T02:48:57.715Z,8.00
2022-09-07T02:50:21.316Z,8.20
2022-09-07T02:51:45.056Z,7.90
2022-09-07T02:53:17.602Z,7.75
2022-09-07T02:54:42.849Z,7.55
2022-09-07T02:56:01.184Z,8.27
2022-09-07T02:57:30.341Z,8.38
2022-09-07T02:58:58.236Z,7.82
2022-09-07T03:00:26.402Z,8.10
2022-09-07T03:01:55.287Z,7.12
2022-09-07T03:03:01.953Z,8.13
2022-09-07T03:04:37.220Z,8.15
2022-09-07T03:05:47.501Z,7.62
2022-09-07T03:07:06.040Z,7.60
2022-09-07T03:08:11.469Z,7.10
2022-09-07T03:09:22.502Z,8.10
2022-09-07T03:10:26.294Z,7.70
2022-09-07T03:11:30.269Z,7.45
2022-09-07T03:12:59.198Z,7.82
2022-09-07T03:14:12.738Z,8.27
2022-09-07T03:15:19.171Z,8.60
2022-09-07T03:16:22.339Z,8.85
2022-09-07T03:17:25.350Z,8.80
2022-09-07T03:18:29.246Z,9.00
2022-09-07T03:19:32.093Z,9.85
2022-09-07T03:20:36.029Z,10.40
2022-09-07T03:21:38.988Z,9.90
2022-09-07T03:22:41.901Z,11.00
2022-09-07T03:23:47.764Z,12.02
2022-09-07T03:24:52.835Z,10.15
2022-09-07T03:25:55.653Z,10.20
2022-09-07T03:26:58.975Z,11.07
2022-09-07T03:28:01.972Z,10.85
2022-09-07T03:29:04.945Z,10.40
2022-09-07T03:30:09.797Z,9.20
2022-09-07T03:31:12.926Z,11.10
2022-09-07T03:33:23.666Z,12.23
2022-09-07T03:34:26.476Z,11.93
2022-09-07T03:35:29.575Z,11.73
2022-09-07T03:36:32.726Z,11.40
2022-09-07T03:37:37.181Z,10.02
2022-09-07T03:38:40.027Z,10.43
2022-09-07T03:39:42.949Z,10.60
2022-09-07T03:40:45.939Z,10.20
2022-09-07T03:41:49.147Z,9.45
2022-09-07T03:42:52.083Z,9.18
2022-09-07T03:43:55.553Z,9.73
2022-09-07T03:44:58.478Z,9.07
2022-09-07T03:46:04.492Z,10.23
2022-09-07T03:47:07.579Z,9.10
2022-09-07T03:48:10.516Z,9.48
2022-09-07T03:49:13.453Z,9.32
2022-09-07T03:50:16.549Z,8.25
2022-09-07T03:51:19.551Z,9.95
2022-09-07T03:52:22.613Z,9.38
2022-09-07T03:53:29.257Z,8.73
2022-09-07T03:54:33.597Z,10.25
2022-09-07T03:55:37.732Z,10.20
2022-09-07T03:56:40.736Z,10.00
2022-09-07T03:57:44.057Z,9.25
2022-09-07T03:58:48.462Z,9.52
2022-09-07T03:59:51.616Z,9.27
2022-09-07T04:00:54.974Z,9.20
2022-09-07T04:01:57.841Z,9.57
2022-09-07T04:03:00.948Z,9.30
2022-09-07T04:04:04.121Z,9.13
2022-09-07T04:05:07.575Z,9.23
2022-09-07T04:06:10.694Z,9.73
2022-09-07T04:07:14.898Z,9.18
2022-09-07T04:08:17.911Z,10.55
2022-09-07T04:09:20.857Z,10.30
2022-09-07T04:10:23.732Z,10.00
2022-09-07T04:11:26.814Z,11.05
2022-09-07T04:12:29.708Z,10.88
2022-09-07T04:13:35.339Z,10.98
2022-09-07T04:14:38.375Z,10.85
2022-09-07T04:15:41.479Z,11.63
2022-09-07T04:16:46.070Z,10.80
2022-09-07T04:17:49.007Z,10.07
2022-09-07T04:18:55.192Z,10.63
2022-09-07T04:19:57.988Z,11.12
2022-09-07T04:21:00.997Z,10.77
2022-09-07T04:22:03.847Z,11.95
2022-09-07T04:23:06.957Z,11.77
2022-09-07T04:24:13.199Z,12.68
2022-09-07T04:25:16.443Z,12.23
2022-09-07T04:26:26.128Z,11.43
2022-09-07T04:27:28.949Z,11.98
2022-09-07T04:28:32.408Z,11.00
2022-09-07T04:29:35.388Z,12.18
2022-09-07T04:30:38.343Z,11.93
2022-09-07T04:31:41.250Z,11.90
2022-09-07T04:32:46.674Z,11.25
2022-09-07T04:33:50.757Z,11.00
2022-09-07T04:34:54.667Z,11.30
2022-09-07T04:36:00.940Z,10.13
2022-09-07T04:37:03.962Z,10.80
2022-09-07T04:38:07.981Z,10.00
2022-09-07T04:39:11.745Z,9.45
2022-09-07T04:40:14.822Z,9.43
2022-09-07T04:41:19.204Z,9.52
2022-09-07T04:42:22.268Z,9.52
2022-09-07T04:43:25.101Z,9.43
2022-09-07T04:44:27.990Z,9.23
2022-09-07T04:45:30.826Z,9.38
2022-09-07T04:46:36.131Z,9.60
2022-09-07T04:47:39.140Z,9.07
2022-09-07T04:48:42.500Z,8.23
2022-09-07T04:49:45.393Z,7.68
2022-09-07T04:50:48.264Z,8.63
2022-09-07T04:51:51.111Z,7.72
2022-09-07T04:52:53.933Z,8.30
2022-09-07T04:53:58.683Z,9.07
2022-09-07T04:55:01.548Z,7.97
2022-09-07T04:56:05.116Z,7.85
2022-09-07T04:57:10.150Z,7.87
2022-09-07T04:58:13.219Z,7.97
2022-09-07T04:59:16.060Z,7.57
2022-09-07T05:00:19.157Z,8.23
2022-09-07T05:01:24.437Z,7.35
2022-09-07T05:02:27.307Z,6.90
2022-09-07T05:03:31.822Z,7.30
2022-09-07T05:04:37.644Z,7.47
2022-09-07T05:05:40.684Z,7.10
2022-09-07T05:06:43.605Z,6.80
2022-09-07T05:07:46.593Z,7.37
2022-09-07T05:08:52.160Z,7.22
2022-09-07T05:09:55.095Z,7.40
2022-09-07T05:10:57.963Z,7.60
2022-09-07T05:12:01.045Z,7.10
2022-09-07T05:13:03.936Z,6.87
2022-09-07T05:14:06.778Z,6.60
2022-09-07T05:15:10.386Z,7.10
2022-09-07T05:16:17.119Z,6.80
2022-09-07T05:17:20.126Z,6.37
2022-09-07T05:18:23.021Z,6.87
2022-09-07T05:19:25.885Z,6.40
2022-09-07T05:20:29.199Z,6.85
2022-09-07T05:21:34.200Z,6.70
2022-09-07T05:22:41.436Z,7.57
2022-09-07T05:23:44.819Z,6.37
2022-09-07T05:24:48.295Z,6.12
2022-09-07T05:25:51.195Z,7.05
2022-09-07T05:26:54.344Z,6.87
2022-09-07T05:27:57.717Z,6.68
2022-09-07T05:31:49.061Z,6.75
2022-09-07T05:32:53.071Z,6.45
2022-09-07T05:35:23.322Z,6.50
2022-09-07T05:36:27.595Z,6.47
2022-09-07T05:37:30.436Z,6.18
2022-09-07T05:38:37.130Z,7.03
2022-09-07T05:39:40.073Z,6.00
2022-09-07T05:40:42.950Z,6.00
2022-09-07T05:41:45.779Z,5.85
2022-09-07T05:42:48.720Z,6.15
2022-09-07T05:45:15.034Z,6.00
2022-09-07T05:46:18.778Z,6.00
2022-09-07T05:47:21.778Z,6.68
2022-09-07T05:48:24.720Z,5.68
2022-09-07T05:49:27.679Z,6.47
2022-09-07T05:50:30.643Z,6.07
2022-09-07T05:51:34.378Z,6.60
2022-09-07T05:52:40.364Z,6.07
2022-09-07T05:53:46.391Z,6.05
2022-09-07T05:54:50.140Z,5.90
2022-09-07T05:55:53.179Z,5.82
2022-09-07T05:56:56.030Z,5.93
2022-09-07T05:57:58.943Z,6.37
2022-09-07T05:59:01.778Z,6.47
2022-09-07T06:00:05.186Z,6.28
2022-09-07T06:01:12.773Z,5.62
2022-09-07T06:02:16.225Z,5.60
2022-09-07T06:03:19.404Z,5.10
2022-09-07T06:04:23.003Z,7.03
2022-09-07T06:05:27.393Z,6.53
2022-09-07T06:06:30.282Z,6.10
2022-09-07T06:07:33.107Z,6.60
2022-09-07T06:08:38.279Z,6.20
2022-09-07T06:11:10.278Z,5.87
2022-09-07T06:12:13.099Z,5.07
2022-09-07T06:13:15.992Z,5.37
2022-09-07T06:14:18.929Z,5.00
2022-09-07T06:15:21.698Z,5.60
2022-09-07T06:16:24.602Z,5.15
2022-09-07T06:17:31.311Z,5.65
2022-09-07T06:18:36.555Z,6.07
2022-09-07T06:19:39.318Z,5.82
2022-09-07T06:20:42.249Z,5.53
2022-09-07T06:21:45.062Z,5.95
2022-09-07T06:22:47.996Z,5.85
2022-09-07T06:23:51.921Z,6.95
2022-09-07T06:24:54.736Z,6.12
2022-09-07T06:25:57.564Z,5.37
2022-09-07T06:27:00.297Z,6.18
2022-09-07T06:28:03.816Z,5.68
2022-09-07T06:29:06.676Z,5.82
2022-09-07T06:30:10.082Z,5.37
2022-09-07T06:31:15.154Z,5.78
2022-09-07T06:33:42.831Z,5.68
2022-09-07T06:34:45.587Z,5.25
2022-09-07T06:35:59.242Z,5.18
2022-09-07T06:37:02.139Z,5.30
2022-09-07T06:38:04.926Z,5.43
2022-09-07T06:39:07.776Z,4.80
2022-09-07T06:40:12.045Z,5.07
2022-09-07T06:42:44.298Z,5.20
2022-09-07T06:43:47.894Z,5.45
2022-09-07T06:44:50.781Z,5.65
2022-09-07T06:45:54.705Z,5.57
2022-09-07T06:47:05.104Z,4.93
2022-09-07T06:48:08.412Z,4.65
2022-09-07T06:49:11.333Z,4.85
2022-09-07T06:50:15.004Z,4.97
2022-09-07T06:51:19.968Z,5.20
2022-09-07T06:52:22.920Z,6.03
2022-09-07T06:53:34.192Z,5.00
2022-09-07T06:56:01.316Z,5.20
2022-09-07T06:57:09.386Z,4.75
2022-09-07T06:58:12.705Z,4.60
2022-09-07T06:59:15.510Z,4.30
2022-09-07T07:00:18.937Z,5.22
2022-09-07T07:01:22.061Z,5.15
2022-09-07T07:02:25.052Z,4.68
2022-09-07T07:03:28.873Z,4.65
2022-09-07T07:04:34.189Z,4.72
2022-09-07T07:05:40.972Z,5.15
2022-09-07T07:06:44.008Z,4.80
2022-09-07T07:07:46.732Z,4.62
2022-09-07T07:08:54.192Z,5.85
2022-09-07T07:09:58.920Z,5.65
2022-09-07T07:11:06.512Z,5.28
2022-09-07T07:12:11.637Z,5.50
2022-09-07T07:14:18.200Z,4.87
2022-09-07T07:15:21.066Z,4.82
2022-09-07T07:16:24.782Z,5.25
2022-09-07T07:17:27.839Z,5.40
2022-09-07T07:18:30.744Z,4.75
2022-09-07T07:19:33.545Z,5.45
2022-09-07T07:20:37.984Z,5.15
2022-09-07T07:22:03.492Z,5.25
2022-09-07T07:23:04.902Z,4.60
2022-09-07T07:24:08.393Z,4.25
2022-09-07T07:25:11.289Z,5.10
2022-09-07T07:26:17.257Z,5.25
2022-09-07T07:27:21.785Z,5.53
2022-09-07T07:29:50.620Z,4.80
2022-09-07T07:30:58.293Z,4.70
2022-09-07T07:32:01.635Z,4.80
2022-09-07T07:33:04.886Z,5.20
2022-09-07T07:34:08.714Z,5.00
2022-09-07T07:35:12.351Z,5.37
2022-09-07T07:36:17.516Z,4.30
2022-09-07T07:37:22.774Z,5.43
2022-09-07T07:42:47.304Z,5.15
2022-09-07T07:44:00.646Z,5.18
2022-09-07T07:46:28.450Z,5.12
2022-09-07T07:47:31.443Z,5.12
2022-09-07T07:48:36.258Z,5.03
2022-09-07T07:49:39.148Z,4.50
2022-09-07T07:50:42.032Z,4.87
2022-09-07T07:54:33.033Z,5.47
2022-09-07T07:55:44.719Z,4.68
2022-09-07T07:56:47.652Z,4.50
2022-09-07T07:57:50.343Z,4.40
2022-09-07T07:58:53.853Z,4.35
2022-09-07T07:59:56.955Z,5.07
2022-09-07T08:01:08.382Z,5.00
2022-09-07T08:03:19.195Z,4.40
2022-09-07T08:04:23.299Z,4.53
2022-09-07T08:05:26.090Z,4.65
2022-09-07T08:06:28.915Z,5.00
2022-09-07T08:07:31.838Z,4.80
2022-09-07T08:08:36.617Z,4.55
2022-09-07T08:09:41.152Z,4.87
2022-09-07T08:10:44.079Z,4.55
2022-09-07T08:11:47.739Z,5.15
2022-09-07T08:12:50.665Z,5.00
2022-09-07T08:13:55.064Z,4.60
2022-09-07T08:14:57.832Z,4.80
2022-09-07T08:16:01.011Z,5.20
2022-09-07T08:17:04.088Z,4.35
2022-09-07T08:18:06.804Z,4.65
2022-09-07T08:19:10.157Z,3.95
2022-09-07T08:20:13.115Z,5.55
2022-09-07T08:21:17.080Z,4.85
2022-09-07T08:22:20.116Z,5.62
2022-09-07T08:23:23.014Z,4.97
2022-09-07T08:24:26.557Z,4.82
2022-09-07T08:25:29.637Z,4.85
2022-09-07T08:26:32.843Z,4.87
2022-09-07T08:27:36.463Z,5.20
2022-09-07T08:28:41.595Z,4.80
2022-09-07T08:29:44.535Z,6.07
2022-09-07T08:30:48.042Z,5.30
2022-09-07T08:31:51.305Z,4.68
2022-09-07T08:32:54.208Z,5.07
2022-09-07T08:33:57.074Z,5.75
2022-09-07T08:35:00.265Z,5.37
2022-09-07T08:36:05.294Z,5.03
2022-09-07T08:37:08.267Z,5.15
2022-09-07T08:38:11.333Z,5.05
2022-09-07T08:39:14.481Z,5.12
2022-09-07T08:40:19.575Z,5.00
2022-09-07T08:41:42.612Z,5.30
2022-09-07T08:43:09.504Z,5.00
2022-09-07T08:44:26.355Z,4.97
2022-09-07T08:45:43.501Z,5.35
2022-09-07T08:46:52.869Z,4.80
2022-09-07T08:47:56.298Z,4.20
2022-09-07T08:49:01.646Z,5.28
2022-09-07T08:50:11.845Z,4.93
2022-09-07T08:51:36.556Z,4.78
2022-09-07T08:53:09.928Z,4.40
2022-09-07T08:54:15.284Z,4.80
2022-09-07T08:55:35.929Z,5.15
2022-09-07T08:58:47.593Z,5.28
2022-09-07T09:00:08.244Z,4.53
2022-09-07T09:01:31.982Z,4.70
2022-09-07T09:02:43.533Z,5.57
2022-09-07T09:05:35.346Z,5.03
2022-09-07T09:07:22.785Z,5.00
2022-09-07T09:08:31.450Z,4.62
2022-09-07T09:09:48.978Z,4.85
2022-09-07T09:10:51.934Z,4.62
2022-09-07T09:12:20.094Z,5.60
2022-09-07T09:13:36.133Z,5.68
2022-09-07T09:15:03.494Z,4.55
2022-09-07T09:16:42.905Z,5.45
2022-09-07T09:17:59.172Z,5.55
2022-09-07T09:19:19.301Z,4.80
2022-09-07T09:20:37.520Z,6.30
2022-09-07T09:21:41.225Z,6.00
2022-09-07T09:22:44.862Z,6.03
2022-09-07T09:23:51.473Z,5.12
2022-09-07T09:25:37.827Z,5.30
2022-09-07T09:26:44.430Z,5.43
2022-09-07T09:27:51.301Z,5.60
2022-09-07T09:28:55.434Z,5.18
2022-09-07T09:29:58.378Z,5.22
2022-09-07T09:31:01.571Z,5.20
2022-09-07T09:32:53.225Z,5.43
2022-09-07T09:34:12.812Z,5.87
2022-09-07T09:35:17.924Z,5.03
2022-09-07T09:36:31.736Z,5.60
2022-09-07T09:37:37.017Z,4.90
2022-09-07T09:38:40.982Z,6.00
2022-09-07T09:39:44.669Z,5.53
2022-09-07T09:40:53.358Z,4.70
2022-09-07T09:41:59.746Z,5.53
2022-09-07T09:43:17.850Z,5.00
2022-09-07T09:44:23.388Z,5.87
2022-09-07T09:45:29.301Z,4.82
2022-09-07T09:46:35.600Z,4.95
2022-09-07T09:47:39.366Z,5.12
2022-09-07T09:48:43.298Z,5.35
2022-09-07T09:49:46.163Z,4.82
2022-09-07T09:52:42.193Z,4.97
2022-09-07T09:53:57.382Z,5.00
2022-09-07T09:56:44.042Z,5.10
2022-09-07T10:04:02.734Z,4.90
2022-09-07T10:05:31.362Z,5.55
2022-09-07T10:06:34.140Z,4.93
2022-09-07T10:07:37.138Z,4.82
2022-09-07T10:08:49.708Z,5.35
2022-09-07T10:09:54.295Z,4.70
2022-09-07T10:11:04.929Z,5.40
2022-09-07T10:12:23.145Z,5.20
2022-09-07T10:13:32.202Z,4.75
2022-09-07T10:14:46.978Z,5.40
2022-09-07T10:15:56.107Z,4.68
2022-09-07T10:17:02.019Z,5.45
2022-09-07T10:18:07.361Z,5.30
2022-09-07T10:19:33.967Z,5.10
2022-09-07T10:20:39.044Z,4.97
2022-09-07T10:21:45.047Z,5.40
2022-09-07T10:22:53.756Z,4.53
2022-09-07T10:24:05.548Z,4.75
2022-09-07T10:25:32.472Z,4.87
2022-09-07T10:26:37.674Z,5.28
2022-09-07T10:27:41.231Z,4.95
2022-09-07T10:30:17.288Z,5.53
2022-09-07T10:31:32.101Z,5.20
2022-09-07T10:32:51.297Z,5.10
2022-09-07T10:35:30.996Z,4.97
2022-09-07T10:36:55.155Z,5.20
2022-09-07T10:38:18.305Z,5.45
2022-09-07T10:39:29.960Z,4.82
2022-09-07T10:40:38.351Z,5.45
2022-09-07T10:42:01.808Z,5.25
2022-09-07T10:44:46.529Z,4.53
2022-09-07T10:46:07.844Z,5.75
2022-09-07T10:47:31.693Z,5.10
2022-09-07T10:48:49.719Z,5.53
2022-09-07T10:50:23.731Z,5.60
2022-09-07T10:51:32.807Z,5.70
2022-09-07T10:52:42.428Z,5.53
2022-09-07T10:54:31.466Z,6.05
2022-09-07T10:55:42.643Z,6.20
2022-09-07T10:56:45.611Z,5.93
2022-09-07T10:58:15.905Z,6.05
2022-09-07T11:01:08.383Z,5.90
2022-09-07T11:04:19.883Z,6.70
2022-09-07T11:05:47.288Z,7.25
2022-09-07T11:06:55.531Z,6.82
2022-09-07T11:08:16.687Z,7.50
2022-09-07T11:09:48.501Z,8.43
2022-09-07T11:11:02.152Z,8.10
2022-09-07T11:12:36.422Z,7.43
2022-09-07T11:14:09.026Z,7.70
2022-09-07T11:15:12.441Z,8.43
2022-09-07T11:17:53.031Z,8.48
2022-09-07T11:20:42.908Z,8.25
2022-09-07T11:21:56.951Z,9.38
2022-09-07T11:23:22.287Z,10.15
2022-09-07T11:26:49.122Z,9.73
2022-09-07T11:27:59.742Z,9.90
2022-09-07T11:30:37.378Z,10.23
2022-09-07T11:31:51.900Z,10.05
2022-09-07T11:33:20.276Z,9.23
2022-09-07T11:34:34.089Z,8.45
2022-09-07T11:35:36.982Z,8.93
2022-09-07T11:37:07.131Z,8.82
2022-09-07T11:38:45.201Z,9.98
2022-09-07T11:39:54.163Z,9.02
2022-09-07T11:41:02.234Z,9.90
2022-09-07T11:44:57.752Z,9.23
2022-09-07T11:46:15.070Z,10.18
2022-09-07T11:47:44.897Z,11.00
2022-09-07T11:48:55.315Z,11.05
2022-09-07T11:49:59.475Z,11.25
2022-09-07T11:51:21.912Z,11.27
2022-09-07T11:52:37.264Z,10.23
2022-09-07T11:53:46.572Z,10.25
2022-09-07T11:54:56.450Z,11.90
2022-09-07T11:56:04.465Z,11.75
2022-09-07T11:57:27.697Z,11.43
2022-09-07T11:58:41.998Z,12.05
2022-09-07T12:00:21.990Z,12.10
2022-09-07T12:01:51.010Z,11.20
2022-09-07T12:03:14.229Z,11.77
2022-09-07T12:04:50.016Z,11.55
2022-09-07T12:06:17.724Z,11.18
2022-09-07T12:07:26.385Z,11.27
2022-09-07T12:08:32.196Z,11.75
2022-09-07T12:09:52.537Z,12.20
2022-09-07T12:12:31.224Z,12.07
2022-09-07T12:13:45.681Z,12.13
2022-09-07T12:14:57.624Z,12.13
2022-09-07T12:16:09.906Z,10.90
2022-09-07T12:17:31.688Z,12.20
2022-09-07T12:20:18.771Z,11.48
2022-09-07T12:21:40.895Z,11.30
2022-09-07T12:23:05.579Z,12.00
2022-09-07T12:24:33.880Z,12.00
2022-09-07T12:25:37.227Z,11.73
2022-09-07T12:26:39.995Z,12.30
2022-09-07T12:27:42.859Z,12.15
2022-09-07T12:28:45.625Z,12.48
2022-09-07T12:29:58.395Z,12.00
2022-09-07T12:31:07.061Z,12.37
2022-09-07T12:33:40.767Z,11.88
2022-09-07T12:34:52.820Z,12.18
2022-09-07T12:35:59.098Z,11.23
2022-09-07T12:37:12.293Z,11.40
2022-09-07T12:38:18.402Z,12.13
2022-09-07T12:39:25.414Z,11.77
2022-09-07T12:40:30.442Z,11.45
2022-09-07T12:41:47.915Z,12.32
2022-09-07T12:42:50.749Z,12.57
2022-09-07T12:44:08.348Z,12.90
2022-09-07T12:45:29.214Z,11.88
2022-09-07T12:46:34.738Z,11.65
2022-09-07T12:47:42.523Z,11.63
2022-09-07T12:48:46.893Z,11.98
2022-09-07T12:49:55.682Z,11.20
2022-09-07T12:51:16.717Z,11.38
2022-09-07T12:52:49.512Z,11.73
2022-09-07T12:54:18.986Z,11.77
2022-09-07T12:56:15.146Z,11.35
2022-09-07T12:58:53.034Z,10.52
2022-09-07T13:00:16.131Z,10.43
2022-09-07T13:01:27.728Z,10.68
2022-09-07T13:03:06.181Z,9.48
2022-09-07T13:04:41.175Z,11.90
2022-09-07T13:05:56.111Z,10.88
2022-09-07T13:07:22.478Z,10.15
2022-09-07T13:08:44.890Z,9.77
2022-09-07T13:10:00.168Z,11.25
2022-09-07T13:11:21.262Z,11.32
2022-09-07T13:14:08.467Z,10.30
2022-09-07T13:15:33.607Z,8.88
2022-09-07T13:18:06.867Z,9.35
2022-09-07T13:19:15.355Z,9.13
2022-09-07T13:20:21.919Z,10.00
2022-09-07T13:21:38.058Z,10.15
2022-09-07T13:22:40.913Z,12.15
2022-09-07T13:25:46.977Z,11.35
2022-09-07T13:27:03.670Z,10.10
2022-09-07T13:28:31.375Z,10.05
2022-09-07T13:29:46.956Z,11.82
2022-09-07T13:31:19.974Z,11.90
2022-09-07T13:33:55.294Z,10.38
2022-09-07T13:35:04.904Z,9.55
2022-09-07T13:36:19.522Z,9.00
2022-09-07T13:37:25.587Z,9.23
2022-09-07T13:38:31.289Z,10.23
2022-09-07T13:39:44.923Z,9.48
2022-09-07T13:40:55.176Z,10.32
2022-09-07T13:42:00.739Z,8.80
2022-09-07T13:43:05.064Z,8.60
2022-09-07T13:44:25.072Z,8.90
2022-09-07T13:45:58.792Z,8.73
2022-09-07T13:47:28.448Z,8.45
2022-09-07T13:48:42.342Z,9.20
2022-09-07T13:50:10.167Z,9.30
2022-09-07T13:51:17.680Z,9.05
2022-09-07T13:53:01.713Z,9.13
2022-09-07T13:54:35.639Z,9.45
2022-09-07T13:56:09.738Z,9.82
2022-09-07T13:57:32.372Z,9.10
2022-09-07T13:58:42.659Z,8.88
2022-09-07T13:59:48.150Z,7.78
2022-09-07T14:01:06.447Z,8.13
2022-09-07T14:02:24.517Z,8.07
2022-09-07T14:03:39.740Z,7.60
2022-09-07T14:05:47.216Z,8.27
2022-09-07T14:06:50.111Z,8.07
2022-09-07T14:07:53.155Z,9.13
2022-09-07T14:09:02.275Z,9.10
2022-09-07T14:10:06.745Z,9.20
2022-09-07T14:11:49.400Z,7.82
2022-09-07T14:12:54.650Z,8.70
2022-09-07T14:14:07.299Z,8.60
2022-09-07T14:15:24.122Z,8.65
2022-09-07T14:16:27.384Z,8.13
2022-09-07T14:17:31.529Z,8.05
2022-09-07T14:18:34.438Z,8.13
2022-09-07T14:19:48.442Z,8.50
2022-09-07T14:20:54.669Z,7.47
2022-09-07T14:22:14.871Z,7.75
2022-09-07T14:23:28.292Z,7.57
2022-09-07T14:24:34.947Z,7.28
2022-09-07T14:27:02.537Z,6.95
2022-09-07T14:28:05.429Z,7.95
2022-09-07T14:29:22.344Z,6.70
2022-09-07T14:30:29.866Z,7.70
2022-09-07T14:31:33.220Z,7.45
2022-09-07T14:32:36.360Z,7.75
2022-09-07T14:33:46.648Z,7.25
2022-09-07T14:34:51.392Z,7.57
2022-09-07T14:35:55.375Z,7.80
2022-09-07T14:37:03.436Z,7.68
2022-09-07T14:39:51.491Z,7.25
2022-09-07T14:41:01.830Z,7.10
2022-09-07T14:42:05.599Z,7.87
2022-09-07T14:43:27.129Z,7.47
2022-09-07T14:44:38.783Z,6.90
2022-09-07T14:45:41.857Z,7.25
2022-09-07T14:46:53.098Z,6.97
2022-09-07T14:47:58.301Z,7.32
2022-09-07T14:49:05.889Z,7.28
2022-09-07T14:50:39.184Z,7.50
2022-09-07T14:51:45.830Z,8.40
2022-09-07T14:54:32.916Z,8.68
2022-09-07T14:55:39.543Z,8.05
2022-09-07T14:56:42.768Z,7.80
2022-09-07T14:57:46.971Z,8.40
2022-09-07T14:58:53.139Z,8.60
2022-09-07T14:59:57.492Z,9.43
2022-09-07T15:02:38.852Z,8.43
2022-09-07T15:03:41.586Z,8.05
2022-09-07T15:04:47.884Z,8.20
2022-09-07T15:05:50.913Z,8.80
2022-09-07T15:07:01.262Z,8.88
2022-09-07T15:08:04.878Z,8.20
2022-09-07T15:09:29.011Z,8.77
2022-09-07T15:10:41.638Z,8.07
2022-09-07T15:11:44.468Z,8.77
2022-09-07T15:12:49.496Z,8.73
2022-09-07T15:14:08.987Z,8.75
2022-09-07T15:15:39.327Z,8.23
2022-09-07T15:16:44.552Z,8.52
2022-09-07T15:17:48.362Z,9.05
2022-09-07T15:18:57.008Z,8.20
2022-09-07T15:19:59.918Z,8.93
2022-09-07T15:21:02.730Z,8.75
2022-09-07T15:22:11.485Z,8.20
2022-09-07T15:23:17.924Z,9.23
2022-09-07T15:24:20.974Z,9.68
2022-09-07T15:25:23.981Z,9.63
2022-09-07T15:27:03.383Z,8.95
2022-09-07T15:28:07.038Z,9.27
2022-09-07T15:29:11.193Z,8.85
2022-09-07T15:30:17.287Z,9.35
2022-09-07T15:32:43.616Z,9.98
2022-09-07T15:33:47.600Z,9.00
2022-09-07T15:34:50.449Z,9.70
2022-09-07T15:35:53.395Z,9.15
2022-09-07T15:37:00.237Z,9.57
2022-09-07T15:38:05.300Z,9.02
2022-09-07T15:39:23.326Z,8.88
2022-09-07T15:40:28.733Z,9.32
2022-09-07T15:41:32.538Z,9.43
2022-09-07T15:44:00.350Z,9.68
2022-09-07T15:45:05.233Z,9.93
2022-09-07T15:46:09.391Z,8.98
2022-09-07T15:48:36.290Z,9.65
2022-09-07T15:49:40.065Z,9.80
2022-09-07T15:50:45.028Z,9.15
2022-09-07T15:52:17.777Z,10.35
2022-09-07T15:54:07.360Z,8.98
2022-09-07T15:54:35.045Z,9.45
2022-09-07T15:55:40.068Z,9.30
2022-09-07T15:57:47.670Z,10.32
2022-09-07T15:58:11.754Z,9.52
2022-09-07T15:59:15.243Z,10.10
2022-09-07T16:00:18.262Z,9.82
2022-09-07T16:04:07.805Z,10.15
2022-09-07T16:05:11.084Z,10.43
2022-09-07T16:06:14.098Z,9.88
2022-09-07T16:07:17.187Z,9.82
2022-09-07T16:08:27.592Z,9.63
2022-09-07T16:09:31.708Z,9.73
2022-09-07T16:10:34.503Z,9.85
2022-09-07T16:11:40.680Z,9.68
2022-09-07T16:14:06.734Z,10.02
2022-09-07T16:15:12.728Z,9.20
2022-09-07T16:16:16.427Z,9.15
2022-09-07T16:17:28.056Z,9.57
2022-09-07T16:18:37.702Z,9.95
2022-09-07T16:19:44.637Z,10.13
2022-09-07T16:20:52.204Z,9.65
2022-09-07T16:21:57.920Z,9.75
2022-09-07T16:23:16.937Z,9.00
2022-09-07T16:24:20.779Z,10.38
2022-09-07T16:25:23.674Z,9.75
2022-09-07T16:26:26.554Z,9.65
2022-09-07T16:27:32.334Z,10.73
2022-09-07T16:28:42.122Z,10.32
2022-09-07T16:29:45.359Z,10.43
2022-09-07T16:30:48.336Z,11.10
2022-09-07T16:33:13.992Z,10.70
2022-09-07T16:34:21.468Z,15.45
2022-09-07T16:35:24.879Z,15.30
2022-09-07T16:36:27.908Z,18.10
2022-09-07T16:37:30.558Z,14.43
2022-09-07T16:38:50.371Z,20.30
2022-09-07T16:39:56.821Z,33.15
2022-09-07T16:41:00.068Z,27.42
2022-09-07T16:42:02.970Z,26.55
2022-09-07T16:43:06.288Z,32.17